Time;durP1;ratioP1;P1;durP2;ratioP2;P2;SDS_P1;SDS_P2;PMS_P1;PMS_P2;Temp;Humidity;BMP_temperature;BMP_pressure;BME280_temperature;BME280_humidity;BME280_pressure;Samples;Min_cycle;Max_cycle;Signal;HPM_P1;HPM_P2
2022/06/19 00:01:02;;;;;;;9.20;4.90;;;16.60;99.90;;;;;;5092798;28;20291;-72
2022/06/19 00:03:32;;;;;;;6.43;4.50;;;16.60;99.90;;;;;;5093208;28;20290;-73
2022/06/19 00:06:01;;;;;;;5.93;4.40;;;16.60;99.90;;;;;;5094867;28;20269;-73
2022/06/19 00:08:28;;;;;;;7.37;4.57;;;16.60;99.90;;;;;;5094431;28;20295;-72
2022/06/19 00:10:55;;;;;;;5.23;4.23;;;16.60;99.90;;;;;;5093215;28;20303;-72
2022/06/19 00:13:22;;;;;;;7.23;4.20;;;16.60;99.90;;;;;;5094227;28;20205;-73
2022/06/19 00:15:49;;;;;;;5.40;4.17;;;16.60;99.90;;;;;;5093584;28;20292;-73
2022/06/19 00:18:16;;;;;;;6.10;4.07;;;16.60;99.90;;;;;;5093043;28;20283;-73
2022/06/19 00:20:43;;;;;;;6.10;4.63;;;16.50;99.90;;;;;;5094084;28;20294;-72
2022/06/19 00:23:12;;;;;;;6.17;4.77;;;16.50;99.90;;;;;;5088740;28;20232;-73
2022/06/19 00:25:39;;;;;;;6.23;4.37;;;16.50;99.90;;;;;;5086736;28;20275;-72
2022/06/19 00:28:06;;;;;;;4.80;4.30;;;16.50;99.90;;;;;;5091773;28;20665;-71
2022/06/19 00:30:34;;;;;;;5.60;4.33;;;16.50;99.90;;;;;;5093391;28;20230;-72
2022/06/19 00:33:02;;;;;;;4.60;3.83;;;16.50;99.90;;;;;;5093230;28;20300;-72
2022/06/19 00:35:29;;;;;;;7.33;4.13;;;16.40;99.90;;;;;;5092109;28;20642;-72
2022/06/19 00:37:57;;;;;;;5.53;4.37;;;16.40;99.90;;;;;;5091929;28;20205;-72
2022/06/19 00:40:27;;;;;;;9.17;4.13;;;16.40;99.90;;;;;;5093293;28;20289;-73
2022/06/19 00:42:54;;;;;;;5.37;4.30;;;16.40;99.90;;;;;;5089925;28;20230;-73
2022/06/19 00:45:33;;;;;;;6.80;4.90;;;16.30;99.90;;;;;;5092765;28;20295;-71
2022/06/19 00:48:02;;;;;;;6.30;4.73;;;16.30;99.90;;;;;;5092758;28;20284;-72
2022/06/19 00:50:31;;;;;;;5.97;4.67;;;16.30;99.90;;;;;;5092438;28;20227;-72
2022/06/19 00:52:59;;;;;;;6.27;4.40;;;16.30;99.90;;;;;;5092255;28;20292;-72
2022/06/19 00:55:31;;;;;;;6.87;4.77;;;16.30;99.90;;;;;;5093538;28;20625;-72
2022/06/19 00:58:01;;;;;;;7.17;4.60;;;16.30;99.90;;;;;;5091043;28;20201;-72
2022/06/19 01:00:30;;;;;;;7.60;4.63;;;16.20;99.90;;;;;;5093383;28;20223;-72
2022/06/19 01:03:00;;;;;;;7.87;4.90;;;16.20;99.90;;;;;;5091079;28;20208;-72
2022/06/19 01:05:28;;;;;;;6.70;5.00;;;16.20;99.90;;;;;;5093743;28;20213;-71
2022/06/19 01:07:58;;;;;;;6.90;5.10;;;16.20;99.90;;;;;;5093157;28;20305;-73
2022/06/19 01:10:27;;;;;;;7.50;4.87;;;16.10;99.90;;;;;;5093204;28;20291;-73
2022/06/19 01:12:56;;;;;;;6.73;4.80;;;16.10;99.90;;;;;;5093571;28;20287;-72
2022/06/19 01:15:25;;;;;;;7.63;4.80;;;16.00;99.90;;;;;;5091514;28;20200;-72
2022/06/19 01:17:56;;;;;;;7.87;4.67;;;16.00;99.90;;;;;;5092117;28;20219;-71
2022/06/19 01:20:24;;;;;;;7.33;4.40;;;16.00;99.90;;;;;;5091779;28;20647;-73
2022/06/19 01:23:08;;;;;;;6.20;4.70;;;15.90;99.90;;;;;;5092147;28;20219;-74
2022/06/19 01:25:38;;;;;;;5.87;4.70;;;15.90;99.90;;;;;;5093115;28;20318;-73
2022/06/19 01:30:54;;;;;;;5.07;4.00;;;15.80;99.90;;;;;;5091720;28;20222;-73
2022/06/19 01:33:26;;;;;;;7.87;4.93;;;15.80;99.90;;;;;;5091487;28;20208;-71
2022/06/19 01:35:54;;;;;;;7.30;4.67;;;15.80;99.90;;;;;;5090223;28;20192;-71
2022/06/19 01:38:23;;;;;;;5.43;4.37;;;15.80;99.90;;;;;;5090264;28;20291;-71
2022/06/19 01:40:55;;;;;;;5.57;4.27;;;15.70;99.90;;;;;;5092129;28;20215;-72
2022/06/19 01:43:22;;;;;;;6.73;4.90;;;15.80;99.90;;;;;;5092124;28;20278;-72
2022/06/19 01:45:53;;;;;;;6.23;4.57;;;15.80;99.90;;;;;;5091337;28;20715;-73
2022/06/19 01:48:21;;;;;;;6.30;4.93;;;15.70;99.90;;;;;;5092062;28;20234;-73
2022/06/19 01:50:48;;;;;;;5.47;4.17;;;15.80;99.90;;;;;;5091205;28;20266;-73
2022/06/19 01:53:20;;;;;;;5.60;4.30;;;15.70;99.90;;;;;;5092232;28;20669;-72
2022/06/19 01:55:48;;;;;;;6.23;4.17;;;15.70;99.90;;;;;;5091457;28;20686;-72
2022/06/19 01:58:18;;;;;;;6.10;4.10;;;15.80;99.90;;;;;;5091585;28;20246;-72
2022/06/19 02:00:47;;;;;;;5.10;3.87;;;15.80;99.90;;;;;;5091279;28;20283;-73
2022/06/19 02:03:20;;;;;;;4.83;3.77;;;15.90;99.90;;;;;;5091816;28;20546;-71
2022/06/19 02:05:47;;;;;;;4.13;3.20;;;16.00;99.90;;;;;;5090209;28;20228;-73
2022/06/19 02:08:16;;;;;;;4.20;3.50;;;16.00;99.90;;;;;;5091287;28;20302;-73
2022/06/19 02:10:45;;;;;;;7.80;3.50;;;16.10;99.90;;;;;;5091518;28;20315;-72
2022/06/19 02:13:14;;;;;;;6.23;3.37;;;16.20;99.90;;;;;;5091389;28;20807;-72
2022/06/19 02:15:44;;;;;;;4.13;3.40;;;16.40;99.90;;;;;;5091701;28;20211;-73
2022/06/19 02:18:17;;;;;;;4.27;3.40;;;16.50;99.90;;;;;;5091486;28;20192;-72
2022/06/19 02:20:44;;;;;;;3.80;3.27;;;16.60;99.90;;;;;;5090557;28;20276;-71
2022/06/19 02:23:12;;;;;;;3.93;3.40;;;16.70;99.90;;;;;;5091539;28;20358;-71
2022/06/19 02:25:41;;;;;;;4.83;3.97;;;16.80;99.90;;;;;;5090715;28;20292;-72
2022/06/19 02:28:10;;;;;;;5.13;3.23;;;16.80;99.90;;;;;;5091277;28;20303;-72
2022/06/19 02:30:37;;;;;;;4.00;3.27;;;16.80;99.90;;;;;;5090956;28;20219;-73
2022/06/19 02:33:07;;;;;;;4.13;3.47;;;16.90;99.90;;;;;;5091538;28;20670;-72
2022/06/19 02:35:34;;;;;;;4.20;3.30;;;17.00;99.90;;;;;;5089226;28;20650;-73
2022/06/19 02:38:07;;;;;;;6.13;3.43;;;17.10;99.90;;;;;;5091611;28;20643;-73
2022/06/19 02:40:41;;;;;;;5.17;3.77;;;17.10;99.90;;;;;;5091497;28;20271;-72
2022/06/19 02:43:13;;;;;;;4.03;3.43;;;17.20;99.90;;;;;;5091413;28;20189;-72
2022/06/19 02:45:40;;;;;;;4.57;3.77;;;17.30;99.90;;;;;;5092691;28;20249;-73
2022/06/19 02:48:17;;;;;;;5.03;3.77;;;17.40;99.90;;;;;;5095226;28;20287;-71
2022/06/19 02:50:43;;;;;;;6.13;3.43;;;17.40;99.90;;;;;;5095375;28;20217;-73
2022/06/19 02:53:10;;;;;;;5.57;3.87;;;17.40;99.90;;;;;;5094716;28;20259;-73
2022/06/19 02:55:37;;;;;;;4.47;3.60;;;17.50;99.90;;;;;;5096116;28;20250;-72
2022/06/19 02:58:04;;;;;;;7.00;3.70;;;17.60;99.90;;;;;;5095321;28;20291;-73
2022/06/19 03:00:31;;;;;;;5.83;3.20;;;17.60;99.90;;;;;;5095543;28;20267;-73
2022/06/19 03:03:01;;;;;;;5.23;4.03;;;17.60;99.90;;;;;;5094980;28;20642;-72
2022/06/19 03:05:30;;;;;;;3.70;3.20;;;17.60;99.90;;;;;;5095451;28;20206;-73
2022/06/19 03:07:57;;;;;;;5.13;3.30;;;17.70;99.90;;;;;;5092466;28;20736;-73
2022/06/19 03:10:25;;;;;;;5.37;3.50;;;17.80;99.90;;;;;;5094043;28;20682;-72
2022/06/19 03:12:52;;;;;;;4.33;3.53;;;17.90;99.90;;;;;;5092092;28;20309;-73
2022/06/19 03:15:19;;;;;;;5.80;4.00;;;17.90;99.90;;;;;;5093043;28;20210;-73
2022/06/19 03:17:46;;;;;;;4.50;3.43;;;18.00;99.90;;;;;;5092606;28;20694;-72
2022/06/19 03:20:15;;;;;;;5.93;3.50;;;18.00;99.90;;;;;;5091938;28;20250;-72
2022/06/19 03:22:44;;;;;;;4.50;3.60;;;18.10;99.90;;;;;;5095554;28;20266;-72
2022/06/19 03:25:11;;;;;;;5.27;3.63;;;18.20;99.90;;;;;;5092586;28;20222;-71
2022/06/19 03:27:38;;;;;;;5.37;3.33;;;18.30;99.90;;;;;;5095379;28;20211;-73
2022/06/19 03:30:07;;;;;;;5.73;3.50;;;18.30;99.90;;;;;;5095108;28;20675;-72
2022/06/19 03:32:34;;;;;;;5.57;3.83;;;18.30;99.90;;;;;;5092454;28;20307;-72
2022/06/19 03:35:01;;;;;;;5.53;3.70;;;18.30;99.90;;;;;;5094923;28;20632;-73
2022/06/19 03:37:28;;;;;;;5.17;3.73;;;18.40;99.90;;;;;;5093017;28;20624;-73
2022/06/19 03:39:56;;;;;;;4.70;3.53;;;18.30;99.90;;;;;;5092895;28;20242;-73
2022/06/19 03:42:23;;;;;;;5.00;3.70;;;18.40;99.90;;;;;;5094196;28;20264;-72
2022/06/19 03:44:50;;;;;;;6.90;3.77;;;18.40;99.90;;;;;;5092595;28;20223;-72
2022/06/19 03:47:20;;;;;;;4.43;3.60;;;18.50;99.90;;;;;;5093303;28;20216;-73
2022/06/19 03:49:47;;;;;;;4.80;3.43;;;18.70;99.90;;;;;;5093111;28;20196;-72
2022/06/19 03:52:14;;;;;;;5.20;3.47;;;18.70;99.90;;;;;;5092508;28;20228;-73
2022/06/19 03:54:42;;;;;;;4.40;3.60;;;18.80;99.90;;;;;;5094177;28;20222;-73
2022/06/19 03:57:12;;;;;;;4.23;3.17;;;18.90;99.90;;;;;;5090811;28;20650;-73
2022/06/19 03:59:39;;;;;;;6.40;3.70;;;19.00;99.90;;;;;;5093945;28;20702;-72
2022/06/19 04:02:08;;;;;;;6.27;3.70;;;19.10;99.90;;;;;;5094664;28;20210;-72
2022/06/19 04:04:35;;;;;;;5.27;3.53;;;19.20;99.90;;;;;;5092666;28;20536;-72
2022/06/19 04:07:03;;;;;;;4.30;3.50;;;19.20;99.90;;;;;;5091734;28;20218;-73
2022/06/19 04:09:30;;;;;;;4.60;3.73;;;19.30;99.90;;;;;;5092907;28;20213;-73
2022/06/19 04:11:57;;;;;;;4.47;3.50;;;19.40;99.90;;;;;;5092932;28;20232;-71
2022/06/19 04:14:25;;;;;;;4.73;3.67;;;19.40;99.90;;;;;;5093350;28;20246;-72
2022/06/19 04:16:52;;;;;;;6.20;3.50;;;19.40;99.90;;;;;;5093790;28;20204;-72
2022/06/19 04:19:19;;;;;;;5.07;3.60;;;19.50;99.90;;;;;;5097228;28;20691;-72
2022/06/19 04:21:47;;;;;;;4.03;3.20;;;19.50;99.90;;;;;;5094504;28;20234;-73
2022/06/19 04:24:17;;;;;;;5.23;4.13;;;19.60;99.90;;;;;;5092355;28;20213;-73
2022/06/19 04:26:44;;;;;;;6.47;4.27;;;19.70;99.90;;;;;;5088725;28;20224;-73
2022/06/19 04:29:13;;;;;;;5.10;3.83;;;19.70;99.90;;;;;;5091613;28;20249;-72
2022/06/19 04:31:41;;;;;;;4.60;3.43;;;19.80;99.90;;;;;;5092979;28;20231;-73
2022/06/19 04:34:09;;;;;;;3.67;3.23;;;19.90;99.90;;;;;;5091029;28;20663;-72
2022/06/19 04:36:36;;;;;;;4.37;3.50;;;20.00;99.90;;;;;;5091567;28;20241;-74
2022/06/19 04:39:04;;;;;;;4.77;3.57;;;20.10;99.90;;;;;;5092010;28;20304;-72
2022/06/19 04:41:36;;;;;;;4.87;3.50;;;20.20;99.90;;;;;;5092664;28;20287;-72
2022/06/19 04:44:04;;;;;;;4.70;3.77;;;20.40;99.90;;;;;;5091073;28;20196;-73
2022/06/19 04:46:31;;;;;;;6.37;3.90;;;20.50;99.90;;;;;;5092108;28;20649;-72
2022/06/19 04:48:59;;;;;;;5.23;4.00;;;20.60;99.90;;;;;;5092722;28;20200;-73
2022/06/19 04:51:26;;;;;;;4.43;3.20;;;20.70;99.90;;;;;;5092822;28;20277;-73
2022/06/19 04:53:54;;;;;;;4.23;2.90;;;20.80;99.90;;;;;;5092511;28;20231;-73
2022/06/19 04:56:22;;;;;;;4.53;3.23;;;20.90;99.90;;;;;;5092995;28;20212;-73
2022/06/19 04:58:50;;;;;;;4.87;3.07;;;21.00;99.90;;;;;;5092079;28;20240;-72
2022/06/19 05:01:24;;;;;;;3.33;3.03;;;21.10;99.90;;;;;;5090019;28;20215;-72
2022/06/19 05:03:52;;;;;;;3.53;3.00;;;21.20;99.90;;;;;;5092803;28;20188;-73
2022/06/19 05:06:20;;;;;;;9.77;3.00;;;21.40;99.90;;;;;;5092861;28;20205;-72
2022/06/19 05:08:47;;;;;;;5.07;3.20;;;21.50;99.90;;;;;;5090415;28;20302;-74
2022/06/19 05:11:14;;;;;;;3.33;3.00;;;21.60;99.90;;;;;;5092180;28;20653;-72
2022/06/19 05:13:42;;;;;;;4.73;3.13;;;21.70;99.90;;;;;;5092468;28;20287;-73
2022/06/19 05:16:12;;;;;;;3.83;2.70;;;21.90;99.90;;;;;;5091589;28;20209;-73
2022/06/19 05:18:39;;;;;;;3.43;2.83;;;21.90;99.90;;;;;;5091474;28;20301;-73
2022/06/19 05:21:06;;;;;;;3.67;2.60;;;22.10;99.90;;;;;;5090457;28;20208;-74
2022/06/19 05:23:36;;;;;;;3.43;2.70;;;22.20;99.90;;;;;;5089789;28;20208;-73
2022/06/19 05:26:05;;;;;;;3.63;2.83;;;22.30;99.90;;;;;;5093410;28;20230;-75
2022/06/19 05:28:33;;;;;;;2.80;2.43;;;22.40;99.90;;;;;;5091756;28;20209;-74
2022/06/19 05:31:01;;;;;;;3.73;2.87;;;22.50;99.90;;;;;;5093981;28;20203;-75
2022/06/19 05:33:29;;;;;;;4.40;2.70;;;22.60;99.90;;;;;;5093290;28;20214;-72
2022/06/19 05:35:57;;;;;;;3.30;2.70;;;22.70;99.90;;;;;;5072285;28;20207;-73
2022/06/19 05:38:24;;;;;;;4.57;2.37;;;22.80;99.90;;;;;;5072650;28;20240;-72
2022/06/19 05:40:53;;;;;;;3.33;2.60;;;22.80;99.90;;;;;;5077145;28;20606;-72
2022/06/19 05:43:21;;;;;;;3.20;2.53;;;22.90;99.90;;;;;;5090696;28;20289;-73
2022/06/19 05:45:52;;;;;;;2.90;2.60;;;22.90;99.90;;;;;;5089439;28;20294;-69
2022/06/19 05:48:19;;;;;;;4.83;2.63;;;22.90;99.90;;;;;;5086517;28;20204;-72
2022/06/19 05:50:46;;;;;;;3.87;2.40;;;22.90;99.90;;;;;;5088844;28;20681;-73
2022/06/19 05:53:13;;;;;;;2.90;2.50;;;22.90;99.90;;;;;;5090134;28;20316;-72
2022/06/19 05:55:41;;;;;;;3.27;2.30;;;23.00;99.90;;;;;;5088692;28;20213;-74
2022/06/19 05:58:09;;;;;;;4.00;2.37;;;23.00;99.90;;;;;;5083273;28;20289;-73
2022/06/19 06:00:36;;;;;;;2.77;2.07;;;23.00;99.90;;;;;;5085178;28;20591;-73
2022/06/19 06:03:02;;;;;;;3.07;2.30;;;23.10;99.90;;;;;;5087431;28;20290;-74
2022/06/19 06:05:29;;;;;;;2.93;2.50;;;23.10;99.90;;;;;;5090856;28;20731;-73
2022/06/19 06:07:56;;;;;;;4.30;2.40;;;23.20;99.90;;;;;;5091260;28;20669;-74
2022/06/19 06:10:23;;;;;;;3.57;2.57;;;23.20;99.90;;;;;;5091257;28;20564;-74
2022/06/19 06:12:50;;;;;;;3.47;2.40;;;23.20;99.90;;;;;;5088700;28;20311;-72
2022/06/19 06:15:18;;;;;;;4.97;2.50;;;23.20;99.90;;;;;;5090904;28;20677;-74
2022/06/19 06:17:45;;;;;;;5.53;2.30;;;23.20;99.90;;;;;;5090259;28;20226;-72
2022/06/19 06:20:13;;;;;;;4.60;2.67;;;23.30;99.90;;;;;;5090533;28;20294;-73
2022/06/19 06:22:40;;;;;;;3.30;2.30;;;23.30;99.90;;;;;;5088933;28;20287;-74
2022/06/19 06:25:08;;;;;;;2.47;2.27;;;23.30;99.90;;;;;;5089780;28;20198;-75
2022/06/19 06:27:35;;;;;;;3.50;2.40;;;23.40;99.90;;;;;;5088690;28;20233;-73
2022/06/19 06:30:03;;;;;;;6.43;2.47;;;23.50;99.90;;;;;;5089689;28;20230;-75
2022/06/19 06:32:31;;;;;;;3.53;2.57;;;23.50;99.90;;;;;;5087989;28;20284;-72
2022/06/19 06:34:58;;;;;;;3.60;2.40;;;23.50;99.90;;;;;;5086618;28;20263;-74
2022/06/19 06:37:25;;;;;;;4.60;2.50;;;23.60;99.90;;;;;;5090392;28;20292;-73
2022/06/19 06:39:52;;;;;;;3.03;2.27;;;23.60;99.90;;;;;;5091945;28;20724;-73
2022/06/19 06:42:19;;;;;;;4.17;2.53;;;23.70;99.90;;;;;;5088305;28;20231;-71
2022/06/19 06:44:45;;;;;;;2.37;2.10;;;23.80;99.90;;;;;;5089984;28;20198;-72
2022/06/19 06:47:12;;;;;;;3.40;2.30;;;23.80;99.90;;;;;;5089345;28;20297;-71
2022/06/19 06:49:41;;;;;;;3.33;2.00;;;23.90;99.90;;;;;;5090264;28;20228;-73
2022/06/19 06:52:09;;;;;;;3.47;1.70;;;23.90;99.90;;;;;;5091040;28;20227;-73
2022/06/19 06:54:37;;;;;;;3.23;1.70;;;23.90;99.90;;;;;;5091228;28;20699;-75
2022/06/19 06:57:05;;;;;;;2.97;2.17;;;24.00;99.90;;;;;;5090270;28;20294;-74
2022/06/19 06:59:32;;;;;;;1.97;1.77;;;24.00;99.90;;;;;;5089526;28;20418;-74
2022/06/19 07:02:00;;;;;;;2.30;1.57;;;24.10;99.90;;;;;;5089004;28;20678;-75
2022/06/19 07:04:27;;;;;;;2.83;1.90;;;24.10;99.90;;;;;;5088086;28;20202;-76
2022/06/19 07:06:56;;;;;;;3.23;1.73;;;24.30;99.90;;;;;;5086212;28;20625;-75
2022/06/19 07:09:23;;;;;;;2.33;1.60;;;24.30;99.90;;;;;;5087040;28;20324;-74
2022/06/19 07:11:50;;;;;;;3.63;1.60;;;24.40;99.90;;;;;;5088506;28;20318;-74
2022/06/19 07:14:19;;;;;;;4.17;1.83;;;24.50;99.90;;;;;;5088470;28;20203;-72
2022/06/19 07:16:45;;;;;;;3.03;1.90;;;24.50;99.90;;;;;;5086462;28;20578;-72
2022/06/19 07:19:13;;;;;;;2.40;1.67;;;24.60;99.90;;;;;;5088784;28;20636;-74
2022/06/19 07:21:40;;;;;;;4.53;1.70;;;24.60;99.90;;;;;;5089657;28;20273;-76
2022/06/19 07:24:08;;;;;;;3.13;1.77;;;24.70;99.90;;;;;;5087047;28;20200;-75
2022/06/19 07:26:35;;;;;;;1.87;1.60;;;24.80;99.90;;;;;;5090109;28;20231;-73
2022/06/19 07:29:02;;;;;;;3.45;2.35;;;24.80;99.90;;;;;;5088623;28;20235;-73
2022/06/19 07:31:29;;;;;;;3.10;1.70;;;24.90;99.90;;;;;;5087666;28;20691;-74
2022/06/19 07:33:56;;;;;;;2.30;1.77;;;25.00;99.90;;;;;;5093146;28;20231;-73
2022/06/19 07:36:24;;;;;;;2.10;1.60;;;25.10;99.90;;;;;;5092178;28;20197;-72
2022/06/19 07:38:51;;;;;;;2.47;1.90;;;25.10;99.90;;;;;;5091178;28;20602;-72
2022/06/19 07:41:20;;;;;;;3.63;1.70;;;25.20;99.90;;;;;;5091579;28;20231;-72
2022/06/19 07:43:50;;;;;;;2.67;1.60;;;25.30;99.70;;;;;;5091976;28;20200;-73
2022/06/19 07:46:17;;;;;;;2.75;1.73;;;25.30;99.40;;;;;;5088086;28;20245;-73
2022/06/19 07:51:30;;;;;;;2.35;1.75;;;25.40;99.90;;;;;;5092089;28;20208;-73
2022/06/19 07:53:57;;;;;;;1.70;1.60;;;25.40;99.90;;;;;;5089525;28;20223;-73
2022/06/19 07:56:25;;;;;;;2.15;1.70;;;25.40;99.90;;;;;;5093408;28;20293;-73
2022/06/19 07:58:52;;;;;;;3.27;1.77;;;25.50;99.20;;;;;;5091364;28;20251;-73
2022/06/19 08:01:19;;;;;;;2.05;1.58;;;25.60;97.60;;;;;;5091172;28;20215;-72
2022/06/19 08:03:46;;;;;;;3.17;2.58;;;25.60;97.60;;;;;;5091756;28;20288;-70
2022/06/19 08:06:14;;;;;;;1.95;1.50;;;25.70;97.40;;;;;;5090322;28;20698;-73
2022/06/19 08:08:42;;;;;;;2.67;1.60;;;25.60;97.30;;;;;;5088152;28;20550;-74
2022/06/19 08:11:10;;;;;;;2.15;1.38;;;25.70;96.60;;;;;;5091626;28;20283;-74
2022/06/19 08:13:39;;;;;;;1.50;1.40;;;25.70;95.70;;;;;;5090781;28;20279;-73
2022/06/19 08:16:08;;;;;;;1.85;1.40;;;25.70;96.50;;;;;;5088829;28;20554;-72
2022/06/19 08:18:36;;;;;;;1.67;1.50;;;25.70;96.40;;;;;;5091160;28;20288;-73
2022/06/19 08:21:03;;;;;;;1.80;1.45;;;25.80;96.70;;;;;;5091052;28;20289;-73
2022/06/19 08:23:30;;;;;;;1.65;1.40;;;25.80;96.50;;;;;;5090835;28;20298;-71
2022/06/19 08:25:58;;;;;;;1.92;1.50;;;25.90;95.90;;;;;;5092955;28;20202;-73
2022/06/19 08:28:28;;;;;;;1.80;1.50;;;25.90;95.90;;;;;;5092269;28;20207;-73
2022/06/19 08:30:56;;;;;;;2.47;1.50;;;25.90;96.20;;;;;;5087991;28;20211;-76
2022/06/19 08:33:23;;;;;;;5.63;1.48;;;25.90;95.50;;;;;;5093592;28;20562;-73
2022/06/19 08:35:53;;;;;;;1.95;1.63;;;25.90;95.10;;;;;;5094286;28;20232;-74
2022/06/19 08:38:24;;;;;;;1.65;1.30;;;26.00;95.30;;;;;;5095809;28;20575;-73
2022/06/19 08:41:19;;;;;;;1.30;1.20;;;26.00;95.50;;;;;;5096954;28;20313;-73
2022/06/19 08:44:12;;;;;;;2.20;1.50;;;26.00;95.00;;;;;;5094420;28;20273;-72
2022/06/19 08:46:50;;;;;;;1.98;1.50;;;26.10;95.10;;;;;;5092918;28;20207;-74
2022/06/19 08:49:35;;;;;;;2.08;1.45;;;26.10;94.60;;;;;;5094546;28;20287;-71
2022/06/19 08:52:13;;;;;;;1.60;1.40;;;26.10;94.50;;;;;;5092122;28;20657;-75
2022/06/19 08:54:54;;;;;;;2.83;1.60;;;26.20;94.50;;;;;;5089812;28;20294;-74
2022/06/19 08:57:31;;;;;;;1.92;1.73;;;26.20;94.60;;;;;;5090898;28;20203;-71
2022/06/19 09:00:07;;;;;;;2.70;1.67;;;26.30;94.20;;;;;;5093586;28;20789;-73
2022/06/19 09:02:43;;;;;;;1.65;1.55;;;26.30;93.90;;;;;;5095858;28;20270;-73
2022/06/19 09:05:45;;;;;;;2.28;1.40;;;26.30;93.70;;;;;;5097418;28;20277;-74
2022/06/19 09:08:44;;;;;;;1.40;1.30;;;26.40;93.70;;;;;;5096439;28;20200;-74
2022/06/19 09:11:39;;;;;;;1.60;1.40;;;26.40;93.30;;;;;;5094658;28;20286;-72
2022/06/19 09:14:25;;;;;;;2.08;1.30;;;26.40;93.10;;;;;;5097419;28;20211;-74
2022/06/19 09:17:01;;;;;;;1.85;1.33;;;26.50;93.40;;;;;;5097823;28;20265;-71
2022/06/19 09:19:39;;;;;;;1.50;1.40;;;26.50;92.40;;;;;;5096861;28;20186;-71
2022/06/19 09:22:23;;;;;;;2.70;1.40;;;26.50;92.10;;;;;;5074708;28;20195;-73
2022/06/19 09:25:03;;;;;;;2.10;1.40;;;26.50;92.10;;;;;;5093597;28;20282;-73
2022/06/19 09:27:34;;;;;;;2.58;1.60;;;26.60;92.40;;;;;;5097623;28;20541;-75
2022/06/19 09:30:05;;;;;;;2.80;1.80;;;26.60;92.00;;;;;;5095283;28;20269;-73
2022/06/19 09:32:38;;;;;;;1.73;1.42;;;26.60;91.90;;;;;;5095142;28;20287;-74
2022/06/19 09:35:12;;;;;;;1.73;1.40;;;26.60;92.40;;;;;;5096692;28;20217;-73
2022/06/19 09:37:44;;;;;;;2.72;1.45;;;26.70;92.90;;;;;;5096264;28;20221;-73
2022/06/19 09:40:17;;;;;;;1.80;1.70;;;26.70;92.70;;;;;;5094940;28;20230;-74
2022/06/19 09:42:50;;;;;;;1.75;1.58;;;26.70;91.00;;;;;;5096315;28;20278;-72
2022/06/19 09:45:21;;;;;;;1.40;1.30;;;26.80;91.60;;;;;;5093669;28;20306;-74
2022/06/19 09:47:52;;;;;;;1.63;1.50;;;26.80;91.80;;;;;;5097193;28;20275;-74
2022/06/19 09:50:25;;;;;;;2.03;1.60;;;26.80;91.60;;;;;;5098797;28;20718;-74
2022/06/19 09:52:57;;;;;;;1.85;1.42;;;26.90;92.00;;;;;;5098987;28;20302;-74
2022/06/19 09:55:31;;;;;;;1.88;1.45;;;26.90;91.90;;;;;;5096964;28;20283;-75
2022/06/19 09:58:06;;;;;;;1.58;1.48;;;27.00;91.80;;;;;;5095990;28;20709;-72
2022/06/19 10:00:36;;;;;;;1.70;1.40;;;27.00;91.70;;;;;;5096322;28;20264;-73
2022/06/19 10:03:09;;;;;;;1.63;1.52;;;27.10;91.70;;;;;;5098305;28;20250;-75
2022/06/19 10:05:43;;;;;;;1.58;1.40;;;27.10;91.70;;;;;;5099966;28;20219;-75
2022/06/19 10:08:15;;;;;;;1.50;1.30;;;27.20;92.10;;;;;;5100744;28;20217;-74
2022/06/19 10:10:48;;;;;;;2.63;1.27;;;27.20;91.20;;;;;;5102280;28;20595;-74
2022/06/19 10:13:21;;;;;;;1.92;1.42;;;27.20;90.90;;;;;;5104121;28;21010;-74
2022/06/19 10:15:48;;;;;;;1.60;1.50;;;27.20;91.20;;;;;;5102824;28;20226;-74
2022/06/19 10:18:20;;;;;;;2.55;1.60;;;27.30;91.20;;;;;;5099559;28;20248;-74
2022/06/19 10:20:56;;;;;;;2.67;1.20;;;27.40;91.20;;;;;;5098906;28;20243;-73
2022/06/19 10:23:34;;;;;;;2.38;1.48;;;27.40;91.10;;;;;;5097437;28;20185;-73
2022/06/19 10:26:10;;;;;;;2.03;1.48;;;27.40;91.30;;;;;;5097634;28;20196;-72
2022/06/19 10:28:56;;;;;;;2.78;1.25;;;27.40;90.40;;;;;;5099270;28;20307;-75
2022/06/19 10:31:33;;;;;;;4.40;1.33;;;27.30;90.50;;;;;;5101261;28;20283;-74
2022/06/19 10:34:07;;;;;;;3.63;1.98;;;27.30;90.20;;;;;;5098756;28;20212;-73
2022/06/19 10:36:43;;;;;;;2.58;1.30;;;27.40;90.90;;;;;;5099842;28;20289;-75
2022/06/19 10:39:24;;;;;;;2.15;1.50;;;27.40;90.20;;;;;;5097312;28;20185;-74
2022/06/19 10:42:03;;;;;;;2.55;1.40;;;27.50;90.80;;;;;;5099151;28;20253;-73
2022/06/19 10:44:44;;;;;;;2.20;1.40;;;27.40;90.30;;;;;;5098303;28;20185;-73
2022/06/19 10:47:20;;;;;;;1.85;1.30;;;27.40;89.90;;;;;;5098926;28;20297;-74
2022/06/19 10:49:58;;;;;;;2.33;1.50;;;27.50;90.20;;;;;;5098219;28;20576;-75
2022/06/19 10:52:31;;;;;;;4.15;1.60;;;27.60;90.50;;;;;;5096624;28;20257;-73
2022/06/19 10:55:09;;;;;;;1.67;1.42;;;27.80;90.10;;;;;;5095993;28;20214;-73
2022/06/19 10:57:48;;;;;;;7.90;1.83;;;27.90;90.60;;;;;;5097285;28;20190;-75
2022/06/19 11:00:15;;;;;;;1.80;1.48;;;28.00;89.70;;;;;;5094666;28;20740;-73
2022/06/19 11:05:38;;;;;;;2.20;1.30;;;28.20;87.70;;;;;;5097059;28;20246;-73
2022/06/19 11:08:06;;;;;;;2.03;1.60;;;28.20;87.90;;;;;;5098750;28;20281;-75
2022/06/19 11:10:40;;;;;;;2.15;1.48;;;28.30;88.20;;;;;;5099348;28;20289;-73
2022/06/19 11:13:07;;;;;;;2.45;1.40;;;28.40;88.20;;;;;;5099135;28;20224;-73
2022/06/19 11:15:36;;;;;;;2.53;1.50;;;28.50;88.20;;;;;;5100729;28;20235;-74
2022/06/19 11:18:18;;;;;;;1.80;1.50;;;28.50;88.00;;;;;;5100423;28;20629;-74
2022/06/19 11:20:59;;;;;;;2.50;1.27;;;28.50;87.40;;;;;;5098997;28;20297;-74
2022/06/19 11:23:34;;;;;;;2.22;1.38;;;28.50;87.70;;;;;;5099923;28;20186;-73
2022/06/19 11:26:13;;;;;;;2.78;1.58;;;28.50;88.50;;;;;;5100278;28;20626;-74
2022/06/19 11:28:51;;;;;;;1.70;1.25;;;28.50;88.90;;;;;;5099045;28;20256;-75
2022/06/19 11:31:22;;;;;;;6.57;1.52;;;28.50;88.70;;;;;;5099751;28;20254;-72
2022/06/19 11:33:53;;;;;;;3.60;1.80;;;28.60;88.40;;;;;;5096752;28;20297;-72
2022/06/19 11:36:36;;;;;;;3.08;1.50;;;28.60;87.40;;;;;;5097989;28;20280;-73
2022/06/19 11:39:33;;;;;;;2.03;1.60;;;28.60;88.30;;;;;;5097478;28;20248;-73
2022/06/19 11:42:18;;;;;;;2.58;1.40;;;28.60;87.70;;;;;;5097065;28;20197;-74
2022/06/19 11:44:51;;;;;;;2.78;1.50;;;28.60;87.20;;;;;;5097118;28;20198;-75
2022/06/19 11:47:24;;;;;;;3.60;1.60;;;28.50;86.40;;;;;;5098553;28;20193;-73
2022/06/19 11:49:51;;;;;;;2.55;1.40;;;28.50;86.80;;;;;;5098371;28;20213;-74
2022/06/19 11:52:20;;;;;;;2.15;1.45;;;28.50;86.60;;;;;;5097907;28;20205;-75
2022/06/19 11:54:50;;;;;;;3.03;1.20;;;28.40;86.40;;;;;;5096363;28;20329;-74
2022/06/19 11:57:26;;;;;;;1.83;1.50;;;28.30;85.80;;;;;;5098424;28;20200;-74
2022/06/19 11:59:56;;;;;;;1.88;1.50;;;28.30;88.00;;;;;;5097186;28;20240;-73
2022/06/19 12:02:29;;;;;;;2.30;1.35;;;28.30;88.60;;;;;;5099747;28;20215;-72
2022/06/19 12:04:58;;;;;;;2.97;1.67;;;28.40;88.60;;;;;;5096415;28;20210;-74
2022/06/19 12:07:28;;;;;;;4.65;1.60;;;28.40;88.60;;;;;;5097909;28;20233;-73
2022/06/19 12:09:59;;;;;;;3.35;1.65;;;28.50;88.80;;;;;;5097168;28;20650;-73
2022/06/19 12:12:28;;;;;;;2.67;1.50;;;28.50;89.00;;;;;;5097258;28;20280;-74
2022/06/19 12:15:02;;;;;;;1.20;1.10;;;28.60;87.70;;;;;;5096792;28;20661;-73
2022/06/19 12:17:39;;;;;;;2.75;1.80;;;28.50;86.90;;;;;;5097363;28;20198;-72
2022/06/19 12:20:25;;;;;;;1.42;1.30;;;28.60;88.00;;;;;;5099442;28;20185;-73
2022/06/19 12:22:56;;;;;;;3.75;1.38;;;28.60;88.10;;;;;;5097300;28;20600;-73
2022/06/19 12:25:35;;;;;;;3.40;1.30;;;28.60;88.00;;;;;;5096640;28;20217;-73
2022/06/19 12:28:09;;;;;;;3.35;1.45;;;28.60;88.30;;;;;;5098487;28;20247;-75
2022/06/19 12:30:40;;;;;;;2.58;1.55;;;28.60;87.30;;;;;;5097823;28;20639;-73
2022/06/19 12:33:18;;;;;;;2.75;1.40;;;28.60;87.90;;;;;;5097306;28;20720;-74
2022/06/19 12:35:48;;;;;;;2.15;1.50;;;28.60;87.40;;;;;;5096214;28;20280;-72
2022/06/19 12:38:17;;;;;;;4.53;1.80;;;28.60;86.90;;;;;;5097691;28;20282;-71
2022/06/19 12:41:13;;;;;;;2.35;1.40;;;28.60;87.60;;;;;;5096673;28;20455;-74
2022/06/19 12:43:50;;;;;;;3.45;2.00;;;28.70;88.00;;;;;;5069508;28;20241;-74
2022/06/19 12:46:27;;;;;;;2.22;1.67;;;28.70;86.90;;;;;;5091516;28;20248;-73
2022/06/19 12:49:02;;;;;;;1.38;1.27;;;28.70;86.80;;;;;;5093576;28;20205;-73
2022/06/19 12:51:36;;;;;;;2.72;1.40;;;28.70;86.40;;;;;;5097129;28;20281;-74
2022/06/19 12:54:40;;;;;;;3.15;1.40;;;28.70;86.20;;;;;;5092987;28;20368;-74
2022/06/19 12:57:19;;;;;;;4.13;2.10;;;28.70;86.10;;;;;;5091342;28;20202;-71
2022/06/19 13:00:00;;;;;;;2.65;1.65;;;28.70;86.30;;;;;;5094900;28;20780;-73
2022/06/19 13:02:44;;;;;;;3.05;1.70;;;28.70;85.50;;;;;;5097979;28;20258;-72
2022/06/19 13:05:23;;;;;;;3.60;1.80;;;28.70;85.80;;;;;;5086023;28;20285;-72
2022/06/19 13:07:59;;;;;;;1.90;1.40;;;28.70;86.40;;;;;;5095786;28;20206;-74
2022/06/19 13:10:42;;;;;;;3.20;1.80;;;28.80;87.00;;;;;;5098062;28;20277;-74
2022/06/19 13:13:29;;;;;;;1.90;1.67;;;28.80;86.50;;;;;;5097693;28;20195;-74
2022/06/19 13:15:58;;;;;;;2.65;1.65;;;28.80;86.60;;;;;;5103169;28;20213;-75